Thunder radar more information blitzortung!


Radar de pluja more information rain snow radar


Visita la nostra xarxa de llocs de meteo:

Template documentation
and downloads

And another site



No particular awareness of the weather is required.    There are no Weather-warnings

Pagina Historial Weather Underground text

Diari Resum Agost 8, 2017 Unitats:  Imperial    Mètric   Tant
« Previous Dia
SegĂźent Dia »
Diari Setmana Mensual Anual Personalitzada
  Maxima: Minima: Media:
Temperatura: TemperatureC °F 19.5 °F 24.6 °F
Punt de rosada: DewpointC °F 13.4 °F 17.7 °F
Humitat: Humidity % 50 % 66 %
Wind Speed: WindSpeedKMH mph 0.0 mph 8 mph
RĂ fegues de vent: WindSpeedGustKMH mph - -
Vent:- - East
Pression baro: PressurehPa in 1007.0 in -
Precipitacions: 0.0 in    
Historical Graphs
 
 
Dades de taula per Agost 8, 2017
Temps Temperatura Punt de rosada Pression baro Vent Wind Speed RĂ fegues de vent Humitat Rainfall Rate (Hourly)
TemperatureC °F DewpointC °F PressurehPa in Calm     Humidity % HourlyPrecipMM in
00:03 25.0 °F 19.2 °F 1010.0 in North 5.6 mph 5.6 mph 70 % 0.0 in
00:05 25.0 °F 20.9 °F 1008.0 in North 3.2 mph 6.4 mph 78 % 0.0 in
00:08 25.0 °F 19.2 °F 1010.0 in NNE 3.7 mph 3.7 mph 70 % 0.0 in
00:15 25.0 °F 21.1 °F 1008.0 in NNE 4.8 mph 9.7 mph 79 % 0.0 in
00:25 24.9 °F 21.2 °F 1007.0 in NE 3.2 mph 4.8 mph 80 % 0.0 in
00:35 25.0 °F 21.3 °F 1007.0 in NE 1.6 mph 4.8 mph 80 % 0.0 in
00:45 25.0 °F 21.1 °F 1007.0 in NE 3.2 mph 4.8 mph 79 % 0.0 in
00:55 25.1 °F 21.4 °F 1007.0 in NE 3.2 mph 6.4 mph 80 % 0.0 in
01:05 25.1 °F 21.4 °F 1007.0 in NE 3.2 mph 4.8 mph 80 % 0.0 in
01:15 25.1 °F 21.4 °F 1007.0 in NE 1.6 mph 3.2 mph 80 % 0.0 in
01:25 25.1 °F 21.4 °F 1007.0 in NE 1.6 mph 4.8 mph 80 % 0.0 in
01:35 25.2 °F 21.5 °F 1007.0 in NE 3.2 mph 3.2 mph 80 % 0.0 in
01:45 25.2 °F 21.5 °F 1007.0 in ENE 3.2 mph 4.8 mph 80 % 0.0 in
01:55 25.1 °F 21.2 °F 1007.0 in ENE 3.2 mph 3.2 mph 79 % 0.0 in
02:05 25.1 °F 21.2 °F 1007.0 in NE 1.6 mph 4.8 mph 79 % 0.0 in
02:15 24.9 °F 20.8 °F 1007.0 in NE 4.8 mph 4.8 mph 78 % 0.0 in
02:25 24.9 °F 20.6 °F 1008.0 in NNE 1.6 mph 3.2 mph 77 % 0.0 in
02:35 24.8 °F 20.5 °F 1008.0 in North 1.6 mph 4.8 mph 77 % 0.0 in
02:45 24.8 °F 20.3 °F 1008.0 in NNE 3.2 mph 3.2 mph 76 % 0.0 in
02:55 24.9 °F 20.4 °F 1008.0 in NE 3.2 mph 4.8 mph 76 % 0.0 in
03:05 25.0 °F 20.1 °F 1008.0 in NNE 1.6 mph 3.2 mph 74 % 0.0 in
03:15 25.0 °F 19.8 °F 1008.0 in NNE 4.8 mph 6.4 mph 73 % 0.0 in
03:25 25.0 °F 19.8 °F 1008.0 in NNE 4.8 mph 6.4 mph 73 % 0.0 in
03:35 25.3 °F 20.1 °F 1008.0 in NE 4.8 mph 4.8 mph 73 % 0.0 in
03:45 25.4 °F 20.2 °F 1008.0 in NE 3.2 mph 3.2 mph 73 % 0.0 in
03:55 26.1 °F 20.9 °F 1008.0 in NE 1.6 mph 3.2 mph 73 % 0.0 in
04:05 26.2 °F 20.8 °F 1008.0 in ENE 1.6 mph 4.8 mph 72 % 0.0 in
04:15 26.7 °F 21.2 °F 1008.0 in NE 1.6 mph 4.8 mph 72 % 0.0 in
04:25 27.1 °F 21.4 °F 1008.0 in NNE 3.2 mph 3.2 mph 71 % 0.0 in
09:28 26.9 °F 21.7 °F 1008.0 in ENE 4.2 mph 4.2 mph 73 % 0.0 in
09:29 26.8 °F 21.6 °F 1008.0 in East 6.1 mph 6.1 mph 73 % 0.0 in
09:34 26.8 °F 21.8 °F 1008.0 in NNE 5.6 mph 5.6 mph 74 % 0.0 in
09:39 26.7 °F 21.7 °F 1008.0 in NE 7.4 mph 7.4 mph 74 % 0.0 in
09:44 26.7 °F 21.7 °F 1008.0 in NNE 5.8 mph 5.8 mph 74 % 0.0 in
09:49 27.0 °F 21.7 °F 1008.0 in ENE 5.6 mph 5.6 mph 73 % 0.0 in
09:54 27.2 °F 21.9 °F 1008.0 in ESE 5.6 mph 5.6 mph 73 % 0.0 in
09:59 27.2 °F 21.9 °F 1008.0 in ENE 3.9 mph 3.9 mph 73 % 0.0 in
10:04 27.0 °F 21.7 °F 1008.0 in ENE 5.6 mph 5.6 mph 73 % 0.0 in
10:09 26.9 °F 21.9 °F 1008.0 in East 3.7 mph 3.7 mph 74 % 0.0 in
10:14 27.0 °F 21.7 °F 1008.0 in NE 4.7 mph 4.7 mph 73 % 0.0 in
10:19 27.1 °F 21.8 °F 1008.0 in East 3.2 mph 3.2 mph 73 % 0.0 in
10:24 27.3 °F 22.1 °F 1008.0 in ENE 7.4 mph 7.4 mph 73 % 0.0 in
10:29 27.4 °F 21.9 °F 1008.0 in Calm     72 % 0.0 in
10:34 28.2 °F 22.7 °F 1009.0 in ENE 5.6 mph 5.6 mph 72 % 0.0 in
10:39 28.6 °F 22.8 °F 1009.0 in ESE 5.0 mph 5.0 mph 71 % 0.0 in
10:44 28.2 °F 22.4 °F 1009.0 in WSW 2.6 mph   71 % 0.0 in
10:49 28.0 °F 22.5 °F 1009.0 in NNW 5.6 mph 5.6 mph 72 % 0.0 in
10:54 27.5 °F 21.1 °F 1009.0 in NE 5.6 mph 5.6 mph 68 % 0.0 in
10:59 27.4 °F 20.5 °F 1009.0 in NE 5.6 mph 5.6 mph 66 % 0.0 in
11:04 27.4 °F 20.2 °F 1009.0 in ESE 3.7 mph 3.7 mph 65 % 0.0 in
11:09 27.2 °F 20.1 °F 1009.0 in East 8.7 mph 8.7 mph 65 % 0.0 in
11:14 26.5 °F 20.8 °F 1009.0 in East 9.3 mph 9.3 mph 71 % 0.0 in
11:19 25.9 °F 20.4 °F 1009.0 in ENE 13.0 mph 13.0 mph 72 % 0.0 in
11:24 25.5 °F 20.1 °F 1009.0 in East 13.0 mph 13.0 mph 72 % 0.0 in
11:29 25.3 °F 20.1 °F 1009.0 in East 14.8 mph 14.8 mph 73 % 0.0 in
11:34 24.9 °F 20.2 °F 1010.0 in NE 13.0 mph 13.0 mph 75 % 0.0 in
11:39 24.6 °F 19.9 °F 1010.0 in ESE 11.1 mph 11.1 mph 75 % 0.0 in
11:44 24.4 °F 20.1 °F 1010.0 in ESE 14.0 mph 14.0 mph 77 % 0.0 in
11:49 24.4 °F 20.1 °F 1009.0 in East 14.8 mph 14.8 mph 77 % 0.0 in
11:54 24.1 °F 20.0 °F 1009.0 in ENE 18.5 mph 18.5 mph 78 % 0.0 in
11:59 24.0 °F 20.1 °F 1009.0 in ESE 16.7 mph 16.7 mph 79 % 0.0 in
12:04 24.0 °F 20.1 °F 1010.0 in NE 20.4 mph 20.4 mph 79 % 0.0 in
12:09 24.0 °F 20.1 °F 1010.0 in ENE 18.5 mph 18.5 mph 79 % 0.0 in
12:14 23.9 °F 20.2 °F 1010.0 in ESE 13.0 mph 13.0 mph 80 % 0.0 in
12:19 23.9 °F 20.2 °F 1010.0 in ENE 10.0 mph 10.0 mph 80 % 0.0 in
12:24 24.2 °F 20.3 °F 1010.0 in SE 14.8 mph 14.8 mph 79 % 0.0 in
12:29 24.0 °F 20.1 °F 1010.0 in ESE 16.7 mph 16.7 mph 79 % 0.0 in
12:34 24.1 °F 20.0 °F 1010.0 in SE 16.7 mph 16.7 mph 78 % 0.0 in
12:36 24.1 °F 20.0 °F 1010.0 in ESE 13.0 mph 13.0 mph 78 % 0.0 in
12:41 24.1 °F 20.0 °F 1010.0 in ESE 13.0 mph 13.0 mph 78 % 0.0 in
12:46 24.1 °F 19.8 °F 1010.0 in ESE 15.8 mph 15.8 mph 77 % 0.0 in
12:51 24.2 °F 19.9 °F 1010.0 in ESE 22.2 mph 22.2 mph 77 % 0.0 in
12:56 24.3 °F 20.0 °F 1010.0 in ESE 20.4 mph 20.4 mph 77 % 0.0 in
13:01 24.4 °F 19.9 °F 1010.0 in ESE 18.5 mph 18.5 mph 76 % 0.0 in
13:06 24.6 °F 20.1 °F 1010.0 in ESE 25.9 mph 25.9 mph 76 % 0.0 in
13:11 24.8 °F 19.8 °F 1010.0 in ESE 20.4 mph 20.4 mph 74 % 0.0 in
13:16 24.9 °F 19.7 °F 1010.0 in ESE 22.2 mph 22.2 mph 73 % 0.0 in
13:21 24.9 °F 19.7 °F 1010.0 in East 14.8 mph 14.8 mph 73 % 0.0 in
13:26 24.6 °F 19.4 °F 1010.0 in ESE 13.0 mph 13.7 mph 73 % 0.0 in
13:31 24.7 °F 19.8 °F 1010.0 in ESE 9.3 mph 9.3 mph 74 % 0.0 in
13:36 24.6 °F 19.7 °F 1010.0 in NNW 7.4 mph 7.4 mph 74 % 0.0 in
13:41 24.5 °F 19.6 °F 1010.0 in ENE 3.7 mph 4.7 mph 74 % 0.0 in
13:46 24.4 °F 19.4 °F 1010.0 in ENE 9.3 mph 9.3 mph 74 % 0.0 in
13:51 24.4 °F 19.4 °F 1010.0 in NNE 9.3 mph 9.3 mph 74 % 0.0 in
13:56 24.4 °F 19.7 °F 1010.0 in North 9.3 mph 9.3 mph 75 % 0.0 in
14:01 24.6 °F 19.9 °F 1010.0 in East 11.1 mph 11.1 mph 75 % 0.0 in
14:06 24.4 °F 19.4 °F 1010.0 in ENE 9.3 mph 9.3 mph 74 % 0.0 in
14:11 24.6 °F 19.9 °F 1010.0 in NNE 7.4 mph 7.4 mph 75 % 0.0 in
14:16 25.0 °F 19.8 °F 1010.0 in ESE 9.3 mph 9.3 mph 73 % 0.0 in
14:21 24.8 °F 19.6 °F 1010.0 in ESE 11.1 mph 11.1 mph 73 % 0.0 in
14:26 24.9 °F 19.7 °F 1010.0 in NNE 9.3 mph 9.3 mph 73 % 0.0 in
14:31 25.1 °F 19.7 °F 1010.0 in East 7.4 mph 7.4 mph 72 % 0.0 in
14:36 25.2 °F 19.8 °F 1010.0 in ENE 7.4 mph 7.4 mph 72 % 0.0 in
14:41 25.5 °F 19.8 °F 1010.0 in ESE 7.4 mph 7.4 mph 71 % 0.0 in
14:46 26.2 °F 20.5 °F 1010.0 in ESE 9.5 mph 9.5 mph 71 % 0.0 in
14:51 25.8 °F 19.9 °F 1010.0 in ENE 7.4 mph 7.4 mph 70 % 0.0 in
14:56 26.4 °F 20.3 °F 1010.0 in NE 13.0 mph 13.0 mph 69 % 0.0 in
15:01 26.5 °F 20.3 °F 1010.0 in NNE 7.4 mph 7.4 mph 69 % 0.0 in
15:06 26.4 °F 20.0 °F 1010.0 in ENE 13.0 mph 13.0 mph 68 % 0.0 in
15:11 26.3 °F 19.7 °F 1010.0 in ESE 11.1 mph 11.1 mph 67 % 0.0 in
15:16 26.6 °F 19.9 °F 1010.0 in East 7.4 mph 7.4 mph 67 % 0.0 in
15:17 26.5 °F 19.9 °F 1010.0 in ESE 12.2 mph 12.2 mph 67 % 0.0 in
15:22 26.8 °F 19.9 °F 1010.0 in NE 9.3 mph 9.3 mph 66 % 0.0 in
15:27 26.6 °F 19.5 °F 1010.0 in ENE 11.1 mph 11.1 mph 65 % 0.0 in
15:32 26.5 °F 19.4 °F 1010.0 in North 14.8 mph 14.8 mph 65 % 0.0 in
15:37 26.8 °F 19.4 °F 1010.0 in NNE 14.8 mph 14.8 mph 64 % 0.0 in
15:42 26.5 °F 19.1 °F 1010.0 in ENE 14.8 mph 14.8 mph 64 % 0.0 in
15:47 26.6 °F 19.2 °F 1010.0 in East 11.1 mph 11.1 mph 64 % 0.0 in
15:52 26.8 °F 19.4 °F 1010.0 in East 11.1 mph 11.1 mph 64 % 0.0 in
15:57 26.6 °F 19.2 °F 1010.0 in ESE 10.3 mph 10.3 mph 64 % 0.0 in
16:02 26.5 °F 18.9 °F 1010.0 in East 13.0 mph 13.0 mph 63 % 0.0 in
16:07 26.4 °F 18.6 °F 1010.0 in ENE 16.7 mph 16.7 mph 62 % 0.0 in
16:12 26.5 °F 18.6 °F 1010.0 in East 13.0 mph 13.0 mph 62 % 0.0 in
16:17 26.7 °F 18.6 °F 1010.0 in WSW 13.0 mph 13.0 mph 61 % 0.0 in
16:22 26.9 °F 18.5 °F 1010.0 in South 9.3 mph 9.3 mph 60 % 0.0 in
16:27 26.9 °F 18.5 °F 1010.0 in NNE 12.6 mph 12.6 mph 60 % 0.0 in
16:32 27.0 °F 18.1 °F 1010.0 in ESE 14.8 mph 14.8 mph 58 % 0.0 in
16:37 27.2 °F 17.9 °F 1010.0 in SE 13.0 mph 13.0 mph 57 % 0.0 in
16:42 27.4 °F 17.8 °F 1010.0 in East 14.8 mph 14.8 mph 56 % 0.0 in
16:47 27.2 °F 17.7 °F 1010.0 in ENE 18.5 mph 18.5 mph 56 % 0.0 in
16:52 27.1 °F 17.3 °F 1010.0 in SE 20.4 mph 20.4 mph 55 % 0.0 in
16:57 26.8 °F 17.3 °F 1010.0 in ESE 20.4 mph 20.4 mph 56 % 0.0 in
16:58 26.7 °F 17.2 °F 1010.0 in ESE 16.7 mph 16.7 mph 56 % 0.0 in
17:03 27.1 °F 17.3 °F 1010.0 in ESE 11.1 mph 11.1 mph 55 % 0.0 in
17:08 27.2 °F 17.4 °F 1010.0 in ENE 14.8 mph 14.8 mph 55 % 0.0 in
17:13 27.0 °F 17.2 °F 1010.0 in SE 13.0 mph 13.0 mph 55 % 0.0 in
17:18 26.9 °F 17.1 °F 1010.0 in SSE 7.4 mph 7.4 mph 55 % 0.0 in
17:23 26.8 °F 17.0 °F 1010.0 in South 13.0 mph 13.0 mph 55 % 0.0 in
17:28 26.5 °F 17.0 °F 1010.0 in SSE 14.5 mph 14.5 mph 56 % 0.0 in
17:33 26.4 °F 16.9 °F 1010.0 in East 9.3 mph 9.3 mph 56 % 0.0 in
17:38 26.6 °F 16.8 °F 1010.0 in South 16.7 mph 16.7 mph 55 % 0.0 in
17:43 26.3 °F 16.2 °F 1010.0 in East 14.8 mph 14.8 mph 54 % 0.0 in
17:48 26.1 °F 16.1 °F 1010.0 in SE 9.3 mph 9.3 mph 54 % 0.0 in
17:53 26.0 °F 15.7 °F 1010.0 in East 7.9 mph 7.9 mph 53 % 0.0 in
17:58 25.9 °F 15.6 °F 1010.0 in ESE 13.7 mph 13.7 mph 53 % 0.0 in
18:03 25.8 °F 15.2 °F 1010.0 in SE 14.8 mph 14.8 mph 52 % 0.0 in
18:08 25.7 °F 14.8 °F 1010.0 in East 18.5 mph 18.5 mph 51 % 0.0 in
18:13 25.7 °F 15.1 °F 1010.0 in ESE 11.1 mph 11.1 mph 52 % 0.0 in
18:18 25.8 °F 15.2 °F 1010.7 in ESE 16.7 mph 16.7 mph 52 % 0.0 in
18:23 25.6 °F 15.0 °F 1010.7 in East 16.7 mph 16.7 mph 52 % 0.0 in
18:28 25.6 °F 14.7 °F 1010.7 in ESE 11.1 mph 11.1 mph 51 % 0.0 in
18:33 25.6 °F 14.7 °F 1010.7 in East 18.5 mph 18.5 mph 51 % 0.0 in
18:38 25.6 °F 14.7 °F 1010.7 in ESE 11.1 mph 11.1 mph 51 % 0.0 in
18:43 25.6 °F 14.7 °F 1010.7 in ESE 11.1 mph 11.1 mph 51 % 0.0 in
18:48 25.6 °F 14.7 °F 1010.7 in SE 7.4 mph 7.4 mph 51 % 0.0 in
18:53 25.6 °F 14.7 °F 1010.7 in East 7.9 mph 7.9 mph 51 % 0.0 in
18:58 25.5 °F 14.6 °F 1010.7 in ENE 13.0 mph 13.0 mph 51 % 0.0 in
19:03 25.4 °F 14.2 °F 1011.7 in ESE 16.7 mph 16.7 mph 50 % 0.0 in
19:08 25.5 °F 14.3 °F 1011.7 in South 9.3 mph 9.3 mph 50 % 0.0 in
19:13 25.4 °F 14.2 °F 1011.7 in ESE 13.0 mph 13.0 mph 50 % 0.0 in
19:18 25.1 °F 14.3 °F 1011.7 in ESE 16.9 mph 16.9 mph 51 % 0.0 in
19:23 25.1 °F 14.3 °F 1011.7 in ENE 9.0 mph 9.0 mph 51 % 0.0 in
19:28 25.0 °F 14.2 °F 1011.7 in SSE 5.6 mph 5.6 mph 51 % 0.0 in
19:33 25.0 °F 14.2 °F 1011.7 in ENE 9.3 mph 9.3 mph 51 % 0.0 in
19:38 24.9 °F 14.4 °F 1011.7 in East 9.3 mph 9.3 mph 52 % 0.0 in
19:43 24.8 °F 14.6 °F 1011.7 in SSE 7.4 mph 7.4 mph 53 % 0.0 in
19:48 24.8 °F 14.6 °F 1011.7 in ESE 9.3 mph 9.3 mph 53 % 0.0 in
19:53 24.7 °F 14.5 °F 1011.7 in ESE 7.4 mph 7.4 mph 53 % 0.0 in
19:55 21.0 °F 15.3 °F 1014.8 in WSW 1.6 mph 3.2 mph 70 % 0.0 in
19:58 24.6 °F 14.4 °F 1011.7 in SE 7.4 mph 7.4 mph 53 % 0.0 in
20:03 24.6 °F 14.7 °F 1011.7 in East 7.4 mph 7.4 mph 54 % 0.0 in
20:05 24.5 °F 14.6 °F 1011.7 in SE 11.1 mph 11.1 mph 54 % 0.0 in
20:10 24.4 °F 14.5 °F 1011.7 in SE 9.3 mph 9.3 mph 54 % 0.0 in
20:15 24.4 °F 14.5 °F 1011.7 in SE 11.1 mph 11.1 mph 54 % 0.0 in
20:20 24.3 °F 14.7 °F 1011.7 in East 7.4 mph 7.4 mph 55 % 0.0 in
20:25 24.2 °F 14.6 °F 1011.7 in NE 7.4 mph 7.4 mph 55 % 0.0 in
20:30 24.2 °F 14.6 °F 1012.8 in ENE 9.3 mph 9.3 mph 55 % 0.0 in
20:35 24.1 °F 14.8 °F 1012.8 in ESE 9.3 mph 9.3 mph 56 % 0.0 in
20:37 24.1 °F 14.8 °F 1012.8 in ESE 5.6 mph 5.6 mph 56 % 0.0 in
20:42 24.0 °F 14.7 °F 1012.8 in NE 11.1 mph 11.1 mph 56 % 0.0 in
20:45 20.5 °F 15.3 °F 1014.8 in Calm   3.2 mph 72 % 0.0 in
20:47 23.9 °F 15.1 °F 1012.8 in ENE 5.6 mph 5.6 mph 58 % 0.0 in
20:52 23.8 °F 15.1 °F 1012.8 in East 7.4 mph 7.4 mph 58 % 0.0 in
20:55 20.4 °F 15.4 °F 1014.8 in Calm     73 % 0.0 in
20:57 23.7 °F 14.9 °F 1012.8 in East 9.3 mph 9.3 mph 58 % 0.0 in
21:02 23.7 °F 15.2 °F 1013.8 in SE 5.6 mph 5.6 mph 59 % 0.0 in
21:05 20.3 °F 15.3 °F 1014.8 in East 1.6 mph 4.8 mph 73 % 0.0 in
21:07 23.6 °F 15.1 °F 1013.8 in ENE 5.8 mph 5.8 mph 59 % 0.0 in
21:12 23.6 °F 15.1 °F 1013.8 in ENE 4.2 mph 4.2 mph 59 % 0.0 in
21:15 20.1 °F 15.1 °F 1014.8 in East 3.2 mph 4.8 mph 73 % 0.0 in
21:17 23.5 °F 15.0 °F 1013.8 in ESE 3.7 mph   59 % 0.0 in
21:22 23.5 °F 15.0 °F 1013.8 in East 9.3 mph 9.3 mph 59 % 0.0 in
21:25 19.9 °F 15.1 °F 1014.8 in ENE 1.6 mph 4.8 mph 74 % 0.0 in
21:27 23.4 °F 14.9 °F 1013.8 in East 4.7 mph 4.7 mph 59 % 0.0 in
21:32 23.3 °F 15.1 °F 1013.8 in ESE 7.4 mph 7.4 mph 60 % 0.0 in
21:37 23.2 °F 15.0 °F 1013.8 in ESE 7.4 mph 7.4 mph 60 % 0.0 in
21:40 19.9 °F 15.3 °F 1014.8 in Calm   3.2 mph 75 % 0.0 in
21:42 23.2 °F 15.0 °F 1013.8 in ENE 5.0 mph 5.0 mph 60 % 0.0 in
21:47 23.1 °F 14.9 °F 1013.8 in NNE 3.7 mph 3.7 mph 60 % 0.0 in
21:50 19.9 °F 15.3 °F 1014.8 in Calm   3.2 mph 75 % 0.0 in
21:52 23.0 °F 15.1 °F 1013.8 in ESE 5.8 mph 5.8 mph 61 % 0.0 in
21:57 23.0 °F 15.1 °F 1013.8 in East 3.7 mph 3.7 mph 61 % 0.0 in
22:02 23.0 °F 15.1 °F 1013.8 in East 5.6 mph 5.6 mph 61 % 0.0 in
22:07 23.1 °F 15.2 °F 1013.8 in East 7.4 mph 7.4 mph 61 % 0.0 in
22:10 19.7 °F 15.2 °F 1014.8 in Calm   3.2 mph 75 % 0.0 in
22:12 23.1 °F 15.2 °F 1013.8 in SW 3.7 mph 3.7 mph 61 % 0.0 in
22:17 23.0 °F 15.1 °F 1013.8 in South 3.7 mph 3.7 mph 61 % 0.0 in
22:20 19.9 °F 15.3 °F 1014.8 in SW 1.6 mph 3.2 mph 75 % 0.0 in
22:22 23.0 °F 15.1 °F 1013.8 in SE 3.9 mph 3.9 mph 61 % 0.0 in
22:27 23.0 °F 15.1 °F 1013.8 in SSW 3.7 mph   61 % 0.0 in
22:30 19.9 °F 15.1 °F 1014.8 in Calm   3.2 mph 74 % 0.0 in
22:32 22.9 °F 15.0 °F 1014.8 in SW 1.9 mph 1.9 mph 61 % 0.0 in
22:37 22.7 °F 15.1 °F 1014.8 in SW 3.7 mph 3.7 mph 62 % 0.0 in
22:40 19.9 °F 14.5 °F 1014.8 in Calm   3.2 mph 71 % 0.0 in
22:42 22.5 °F 14.8 °F 1014.8 in Calm     62 % 0.0 in
22:47 22.5 °F 14.8 °F 1013.8 in ENE 1.9 mph 2.3 mph 62 % 0.0 in
22:50 19.9 °F 14.1 °F 1014.8 in Calm   1.6 mph 69 % 0.0 in
22:52 22.4 °F 14.8 °F 1013.8 in Calm     62 % 0.0 in
22:57 22.3 °F 14.9 °F 1013.8 in SW 1.9 mph 1.9 mph 63 % 0.0 in
23:00 19.8 °F 13.5 °F 1014.8 in NE 1.6 mph 3.2 mph 67 % 0.0 in
23:02 22.3 °F 14.9 °F 1013.8 in SW 3.7 mph 3.7 mph 63 % 0.0 in
23:07 22.3 °F 14.9 °F 1013.8 in Calm     63 % 0.0 in
23:10 19.9 °F 13.6 °F 1013.8 in East 1.6 mph 3.2 mph 67 % 0.0 in
23:12 22.2 °F 14.8 °F 1013.8 in Calm     63 % 0.0 in
23:17 22.2 °F 15.1 °F 1014.8 in NE 3.2 mph 3.2 mph 64 % 0.0 in
23:20 19.8 °F 13.5 °F 1013.8 in Calm   3.2 mph 67 % 0.0 in
23:22 22.1 °F 14.9 °F 1014.8 in Calm     64 % 0.0 in
23:27 22.1 °F 14.9 °F 1014.8 in NW 1.9 mph 1.9 mph 64 % 0.0 in
23:30 19.7 °F 13.6 °F 1013.8 in NE 1.6 mph 3.2 mph 68 % 0.0 in
23:32 22.0 °F 14.9 °F 1014.8 in Calm     64 % 0.0 in
23:37 22.0 °F 15.1 °F 1014.8 in Calm     65 % 0.0 in
23:40 19.5 °F 13.4 °F 1013.8 in SW 1.6 mph 1.6 mph 68 % 0.0 in
23:42 21.9 °F 15.3 °F 1014.8 in Calm     66 % 0.0 in
23:47 21.8 °F 15.2 °F 1014.8 in Calm     66 % 0.0 in
23:50 19.5 °F 13.7 °F 1013.8 in Calm   1.6 mph 69 % 0.0 in
23:52 21.7 °F 15.1 °F 1014.8 in SW 3.7 mph 3.7 mph 66 % 0.0 in
23:57 21.6 °F 15.0 °F 1014.8 in SW 2.3 mph 2.3 mph 66 % 0.0 in
Meteo Sesrovires
Elogis d' Weather Underground - 4 mb

Guio original per  Jim McMurry - jmcmurry@mwt.net Adaptat per a la plantilla per  Wim van der Kuil - Leuven-Template.eu

Trobareu la nostra informacio del temps tambe a:

Weather Underground

AWEKAS